sensor_id;sensor_type;location;lat;lon;timestamp;pressure;altitude;pressure_sealevel;temperature;humidity
68141;BME280;54941;52.220;104.306;2023-05-29T00:01:57;96731.88;;;17.10;31.59
68141;BME280;54941;52.220;104.306;2023-05-29T00:04:23;96728.53;;;17.05;31.44
68141;BME280;54941;52.220;104.306;2023-05-29T00:06:50;96722.00;;;18.14;29.89
68141;BME280;54941;52.220;104.306;2023-05-29T00:09:16;96718.50;;;18.51;28.04
68141;BME280;54941;52.220;104.306;2023-05-29T00:11:44;96713.81;;;17.16;30.15
68141;BME280;54941;52.220;104.306;2023-05-29T00:14:10;96712.94;;;17.16;30.27
68141;BME280;54941;52.220;104.306;2023-05-29T00:16:36;96705.75;;;16.74;31.33
68141;BME280;54941;52.220;104.306;2023-05-29T00:19:03;96707.13;;;18.27;30.40
68141;BME280;54941;52.220;104.306;2023-05-29T00:21:29;96711.59;;;16.84;31.00
68141;BME280;54941;52.220;104.306;2023-05-29T00:23:55;96711.63;;;18.83;28.51
68141;BME280;54941;52.220;104.306;2023-05-29T00:26:22;96714.19;;;19.03;28.58
68141;BME280;54941;52.220;104.306;2023-05-29T00:28:49;96718.78;;;18.26;31.93
68141;BME280;54941;52.220;104.306;2023-05-29T00:31:16;96708.78;;;18.86;32.22
68141;BME280;54941;52.220;104.306;2023-05-29T00:33:42;96700.38;;;18.76;31.79
68141;BME280;54941;52.220;104.306;2023-05-29T00:36:10;96703.06;;;19.47;30.60
68141;BME280;54941;52.220;104.306;2023-05-29T00:38:36;96701.88;;;20.20;27.84
68141;BME280;54941;52.220;104.306;2023-05-29T00:41:02;96695.66;;;21.90;23.10
68141;BME280;54941;52.220;104.306;2023-05-29T00:43:29;96691.53;;;20.46;24.83
68141;BME280;54941;52.220;104.306;2023-05-29T00:45:56;96700.31;;;18.95;30.60
68141;BME280;54941;52.220;104.306;2023-05-29T00:48:23;96707.28;;;18.61;30.26
68141;BME280;54941;52.220;104.306;2023-05-29T00:50:50;96693.19;;;18.39;28.33
68141;BME280;54941;52.220;104.306;2023-05-29T00:53:17;96680.59;;;18.03;31.68
68141;BME280;54941;52.220;104.306;2023-05-29T00:55:44;96682.69;;;17.36;29.45
68141;BME280;54941;52.220;104.306;2023-05-29T00:58:11;96681.44;;;17.24;29.88
68141;BME280;54941;52.220;104.306;2023-05-29T01:00:38;96676.34;;;17.99;29.13
68141;BME280;54941;52.220;104.306;2023-05-29T01:03:06;96669.53;;;17.11;29.36
68141;BME280;54941;52.220;104.306;2023-05-29T01:05:33;96673.38;;;16.83;29.59
68141;BME280;54941;52.220;104.306;2023-05-29T01:08:00;96653.59;;;18.10;27.84
68141;BME280;54941;52.220;104.306;2023-05-29T01:10:27;96655.25;;;17.32;28.99
68141;BME280;54941;52.220;104.306;2023-05-29T01:12:57;96638.63;;;20.16;27.89
68141;BME280;54941;52.220;104.306;2023-05-29T01:15:30;96642.22;;;20.94;27.73
68141;BME280;54941;52.220;104.306;2023-05-29T01:18:16;96632.84;;;20.55;25.50
68141;BME280;54941;52.220;104.306;2023-05-29T01:20:49;96625.53;;;21.35;25.95
68141;BME280;54941;52.220;104.306;2023-05-29T01:26:21;96619.25;;;22.21;22.29
68141;BME280;54941;52.220;104.306;2023-05-29T01:28:53;96627.72;;;21.12;23.11
68141;BME280;54941;52.220;104.306;2023-05-29T01:31:23;96620.50;;;20.98;23.36
68141;BME280;54941;52.220;104.306;2023-05-29T01:33:55;96598.75;;;24.42;19.73
68141;BME280;54941;52.220;104.306;2023-05-29T01:36:22;96593.53;;;24.76;19.47
68141;BME280;54941;52.220;104.306;2023-05-29T01:38:49;96591.69;;;24.53;19.73
68141;BME280;54941;52.220;104.306;2023-05-29T01:41:16;96586.53;;;23.62;21.15
68141;BME280;54941;52.220;104.306;2023-05-29T01:43:44;96587.25;;;24.52;19.54
68141;BME280;54941;52.220;104.306;2023-05-29T01:46:12;96594.00;;;26.55;17.49
68141;BME280;54941;52.220;104.306;2023-05-29T01:48:40;96594.88;;;24.94;19.38
68141;BME280;54941;52.220;104.306;2023-05-29T01:51:07;96590.47;;;23.95;19.16
68141;BME280;54941;52.220;104.306;2023-05-29T01:53:33;96587.63;;;23.20;20.27
68141;BME280;54941;52.220;104.306;2023-05-29T01:56:00;96586.81;;;23.70;20.08
68141;BME280;54941;52.220;104.306;2023-05-29T01:58:27;96579.53;;;23.33;20.47
68141;BME280;54941;52.220;104.306;2023-05-29T02:00:54;96575.22;;;24.19;19.79
68141;BME280;54941;52.220;104.306;2023-05-29T02:03:22;96591.31;;;23.32;19.47
68141;BME280;54941;52.220;104.306;2023-05-29T02:05:48;96571.06;;;23.90;19.41
68141;BME280;54941;52.220;104.306;2023-05-29T02:08:15;96561.53;;;25.07;18.62
68141;BME280;54941;52.220;104.306;2023-05-29T02:10:41;96557.44;;;24.77;18.30
68141;BME280;54941;52.220;104.306;2023-05-29T02:13:08;96557.22;;;24.80;18.32
68141;BME280;54941;52.220;104.306;2023-05-29T02:15:35;96550.19;;;24.04;19.47
68141;BME280;54941;52.220;104.306;2023-05-29T02:18:01;96543.47;;;24.83;18.64
68141;BME280;54941;52.220;104.306;2023-05-29T02:20:29;96541.63;;;24.36;18.72
68141;BME280;54941;52.220;104.306;2023-05-29T02:22:55;96553.28;;;23.87;19.04
68141;BME280;54941;52.220;104.306;2023-05-29T02:25:22;96538.31;;;24.56;18.68
68141;BME280;54941;52.220;104.306;2023-05-29T02:27:48;96543.88;;;25.60;18.04
68141;BME280;54941;52.220;104.306;2023-05-29T02:30:14;96539.88;;;25.42;18.54
68141;BME280;54941;52.220;104.306;2023-05-29T02:32:41;96532.16;;;25.48;17.89
68141;BME280;54941;52.220;104.306;2023-05-29T02:35:08;96535.13;;;26.35;16.86
68141;BME280;54941;52.220;104.306;2023-05-29T02:37:36;96541.13;;;25.38;17.87
68141;BME280;54941;52.220;104.306;2023-05-29T02:40:02;96537.88;;;26.01;17.22
68141;BME280;54941;52.220;104.306;2023-05-29T02:42:31;96529.38;;;27.68;16.22
68141;BME280;54941;52.220;104.306;2023-05-29T02:44:57;96529.03;;;25.88;18.24
68141;BME280;54941;52.220;104.306;2023-05-29T02:47:24;96513.03;;;27.05;17.06
68141;BME280;54941;52.220;104.306;2023-05-29T02:49:50;96519.94;;;27.30;16.56
68141;BME280;54941;52.220;104.306;2023-05-29T02:52:16;96524.06;;;26.27;17.63
68141;BME280;54941;52.220;104.306;2023-05-29T02:54:45;96521.19;;;27.47;15.92
68141;BME280;54941;52.220;104.306;2023-05-29T02:57:11;96519.09;;;25.42;17.89
68141;BME280;54941;52.220;104.306;2023-05-29T02:59:37;96513.28;;;25.82;14.44
68141;BME280;54941;52.220;104.306;2023-05-29T03:02:04;96512.25;;;25.49;15.87
68141;BME280;54941;52.220;104.306;2023-05-29T03:04:30;96508.72;;;24.55;17.69
68141;BME280;54941;52.220;104.306;2023-05-29T03:06:56;96500.09;;;25.09;15.49
68141;BME280;54941;52.220;104.306;2023-05-29T03:09:23;96504.13;;;23.95;17.11
68141;BME280;54941;52.220;104.306;2023-05-29T03:11:51;96500.38;;;24.34;16.17
68141;BME280;54941;52.220;104.306;2023-05-29T03:14:17;96505.19;;;25.00;15.88
68141;BME280;54941;52.220;104.306;2023-05-29T03:16:43;96499.59;;;23.95;16.68
68141;BME280;54941;52.220;104.306;2023-05-29T03:19:10;96480.84;;;22.92;17.37
68141;BME280;54941;52.220;104.306;2023-05-29T03:21:36;96483.69;;;23.16;16.92
68141;BME280;54941;52.220;104.306;2023-05-29T03:24:03;96502.50;;;25.00;15.35
68141;BME280;54941;52.220;104.306;2023-05-29T03:26:29;96472.63;;;24.91;15.51
68141;BME280;54941;52.220;104.306;2023-05-29T03:28:57;96484.06;;;24.35;16.30
68141;BME280;54941;52.220;104.306;2023-05-29T03:31:23;96468.03;;;23.59;17.17
68141;BME280;54941;52.220;104.306;2023-05-29T03:33:50;96475.63;;;24.27;16.63
68141;BME280;54941;52.220;104.306;2023-05-29T03:36:16;96470.00;;;23.94;17.09
68141;BME280;54941;52.220;104.306;2023-05-29T03:38:42;96472.03;;;24.39;16.22
68141;BME280;54941;52.220;104.306;2023-05-29T03:41:09;96449.84;;;24.23;16.31
68141;BME280;54941;52.220;104.306;2023-05-29T03:43:35;96451.19;;;24.77;16.01
68141;BME280;54941;52.220;104.306;2023-05-29T03:46:03;96465.03;;;24.61;16.11
68141;BME280;54941;52.220;104.306;2023-05-29T03:48:29;96456.50;;;25.13;16.29
68141;BME280;54941;52.220;104.306;2023-05-29T03:50:55;96451.97;;;23.94;16.81
68141;BME280;54941;52.220;104.306;2023-05-29T03:53:22;96449.00;;;23.86;17.06
68141;BME280;54941;52.220;104.306;2023-05-29T03:55:48;96436.41;;;23.61;16.66
68141;BME280;54941;52.220;104.306;2023-05-29T03:58:15;96438.88;;;24.13;17.53
68141;BME280;54941;52.220;104.306;2023-05-29T04:00:41;96453.47;;;23.74;17.16
68141;BME280;54941;52.220;104.306;2023-05-29T04:03:09;96434.03;;;24.30;17.67
68141;BME280;54941;52.220;104.306;2023-05-29T04:05:35;96445.16;;;26.31;14.82
68141;BME280;54941;52.220;104.306;2023-05-29T04:08:02;96434.00;;;25.35;16.88
68141;BME280;54941;52.220;104.306;2023-05-29T04:10:28;96439.56;;;25.45;15.71
68141;BME280;54941;52.220;104.306;2023-05-29T04:12:54;96424.69;;;25.39;15.77
68141;BME280;54941;52.220;104.306;2023-05-29T04:15:21;96424.56;;;23.64;17.24
68141;BME280;54941;52.220;104.306;2023-05-29T04:17:47;96428.56;;;23.95;16.79
68141;BME280;54941;52.220;104.306;2023-05-29T04:20:15;96422.56;;;25.09;15.44
68141;BME280;54941;52.220;104.306;2023-05-29T04:22:41;96421.28;;;24.08;16.11
68141;BME280;54941;52.220;104.306;2023-05-29T04:25:08;96413.09;;;24.09;16.27
68141;BME280;54941;52.220;104.306;2023-05-29T04:27:34;96403.81;;;24.25;16.33
68141;BME280;54941;52.220;104.306;2023-05-29T04:30:01;96395.25;;;22.70;17.84
68141;BME280;54941;52.220;104.306;2023-05-29T04:32:29;96410.75;;;22.14;18.40
68141;BME280;54941;52.220;104.306;2023-05-29T04:34:55;96406.66;;;22.61;17.67
68141;BME280;54941;52.220;104.306;2023-05-29T04:37:23;96394.72;;;23.28;17.82
68141;BME280;54941;52.220;104.306;2023-05-29T04:39:49;96379.41;;;22.91;17.88
68141;BME280;54941;52.220;104.306;2023-05-29T04:42:15;96391.06;;;22.26;17.86
68141;BME280;54941;52.220;104.306;2023-05-29T04:44:42;96387.69;;;22.50;17.90
68141;BME280;54941;52.220;104.306;2023-05-29T04:47:08;96391.03;;;22.79;17.68
68141;BME280;54941;52.220;104.306;2023-05-29T04:49:34;96382.56;;;22.85;17.88
68141;BME280;54941;52.220;104.306;2023-05-29T04:52:00;96367.69;;;22.92;18.88
68141;BME280;54941;52.220;104.306;2023-05-29T04:54:29;96387.03;;;22.46;18.30
68141;BME280;54941;52.220;104.306;2023-05-29T04:56:55;96372.38;;;22.50;18.39
68141;BME280;54941;52.220;104.306;2023-05-29T04:59:21;96358.69;;;22.79;18.45
68141;BME280;54941;52.220;104.306;2023-05-29T05:01:47;96365.09;;;23.03;18.65
68141;BME280;54941;52.220;104.306;2023-05-29T05:04:14;96358.06;;;22.75;18.32
68141;BME280;54941;52.220;104.306;2023-05-29T05:06:40;96350.75;;;22.64;19.18
68141;BME280;54941;52.220;104.306;2023-05-29T05:09:06;96348.72;;;22.81;18.78
68141;BME280;54941;52.220;104.306;2023-05-29T05:11:34;96346.34;;;22.11;18.78
68141;BME280;54941;52.220;104.306;2023-05-29T05:14:00;96327.81;;;22.59;19.28
68141;BME280;54941;52.220;104.306;2023-05-29T05:16:27;96330.91;;;22.00;19.56
68141;BME280;54941;52.220;104.306;2023-05-29T05:18:53;96324.03;;;22.49;19.81
68141;BME280;54941;52.220;104.306;2023-05-29T05:21:19;96307.97;;;22.73;19.81
68141;BME280;54941;52.220;104.306;2023-05-29T05:23:46;96297.00;;;22.88;18.48
68141;BME280;54941;52.220;104.306;2023-05-29T05:26:12;96318.53;;;22.63;18.71
68141;BME280;54941;52.220;104.306;2023-05-29T05:28:40;96296.03;;;22.51;19.98
68141;BME280;54941;52.220;104.306;2023-05-29T05:31:07;96309.78;;;23.10;18.49
68141;BME280;54941;52.220;104.306;2023-05-29T05:33:33;96300.31;;;22.79;18.88
68141;BME280;54941;52.220;104.306;2023-05-29T05:35:59;96301.06;;;22.56;19.59
68141;BME280;54941;52.220;104.306;2023-05-29T05:38:26;96289.88;;;22.87;19.98
68141;BME280;54941;52.220;104.306;2023-05-29T05:40:52;96302.81;;;22.69;18.40
68141;BME280;54941;52.220;104.306;2023-05-29T05:43:18;96287.63;;;22.81;18.77
68141;BME280;54941;52.220;104.306;2023-05-29T05:45:46;96279.66;;;22.29;19.37
68141;BME280;54941;52.220;104.306;2023-05-29T05:48:12;96281.81;;;22.49;18.88
68141;BME280;54941;52.220;104.306;2023-05-29T05:50:39;96277.38;;;22.23;19.12
68141;BME280;54941;52.220;104.306;2023-05-29T05:53:05;96278.69;;;22.81;18.80
68141;BME280;54941;52.220;104.306;2023-05-29T05:55:31;96268.00;;;22.92;18.96
68141;BME280;54941;52.220;104.306;2023-05-29T05:57:58;96278.69;;;22.81;18.96
68141;BME280;54941;52.220;104.306;2023-05-29T06:00:24;96266.19;;;22.16;19.83
68141;BME280;54941;52.220;104.306;2023-05-29T06:02:52;96263.72;;;22.51;20.00
68141;BME280;54941;52.220;104.306;2023-05-29T06:05:18;96262.09;;;22.49;19.66
68141;BME280;54941;52.220;104.306;2023-05-29T06:07:44;96258.09;;;22.16;20.12
68141;BME280;54941;52.220;104.306;2023-05-29T06:10:11;96252.56;;;22.05;19.98
68141;BME280;54941;52.220;104.306;2023-05-29T06:12:37;96259.31;;;21.85;20.19
68141;BME280;54941;52.220;104.306;2023-05-29T06:15:04;96242.88;;;22.02;19.99
68141;BME280;54941;52.220;104.306;2023-05-29T06:17:31;96236.13;;;22.09;19.94
68141;BME280;54941;52.220;104.306;2023-05-29T06:19:59;96243.91;;;22.39;20.12
68141;BME280;54941;52.220;104.306;2023-05-29T06:22:25;96220.31;;;22.18;20.32
68141;BME280;54941;52.220;104.306;2023-05-29T06:24:52;96232.66;;;21.95;20.24
68141;BME280;54941;52.220;104.306;2023-05-29T06:27:18;96221.78;;;21.96;20.32
68141;BME280;54941;52.220;104.306;2023-05-29T06:29:44;96212.03;;;22.08;20.49
68141;BME280;54941;52.220;104.306;2023-05-29T06:32:11;96211.50;;;22.16;20.67
68141;BME280;54941;52.220;104.306;2023-05-29T06:34:37;96213.63;;;22.10;20.58
68141;BME280;54941;52.220;104.306;2023-05-29T06:37:05;96206.94;;;22.03;20.40
68141;BME280;54941;52.220;104.306;2023-05-29T06:39:31;96197.31;;;22.13;20.47
68141;BME280;54941;52.220;104.306;2023-05-29T06:41:57;96195.22;;;22.04;20.31
68141;BME280;54941;52.220;104.306;2023-05-29T06:44:24;96196.63;;;22.23;20.93
68141;BME280;54941;52.220;104.306;2023-05-29T06:46:50;96188.22;;;21.89;21.18
68141;BME280;54941;52.220;104.306;2023-05-29T06:49:16;96187.91;;;22.06;21.51
68141;BME280;54941;52.220;104.306;2023-05-29T06:51:43;96170.78;;;22.33;21.64
68141;BME280;54941;52.220;104.306;2023-05-29T06:54:11;96174.84;;;21.88;22.02
68141;BME280;54941;52.220;104.306;2023-05-29T06:56:37;96177.22;;;22.56;21.57
68141;BME280;54941;52.220;104.306;2023-05-29T06:59:04;96174.63;;;22.54;21.10
68141;BME280;54941;52.220;104.306;2023-05-29T07:01:30;96181.03;;;22.77;21.02
68141;BME280;54941;52.220;104.306;2023-05-29T07:03:56;96168.00;;;22.34;21.26
68141;BME280;54941;52.220;104.306;2023-05-29T07:06:41;96164.13;;;22.26;21.22
68141;BME280;54941;52.220;104.306;2023-05-29T07:09:07;96156.09;;;22.13;21.37
68141;BME280;54941;52.220;104.306;2023-05-29T07:11:35;96159.16;;;22.32;21.84
68141;BME280;54941;52.220;104.306;2023-05-29T07:14:01;96153.66;;;22.47;21.96
68141;BME280;54941;52.220;104.306;2023-05-29T07:16:28;96143.03;;;22.82;21.07
68141;BME280;54941;52.220;104.306;2023-05-29T07:18:54;96134.31;;;23.02;21.03
68141;BME280;54941;52.220;104.306;2023-05-29T07:21:20;96135.59;;;23.09;21.29
68141;BME280;54941;52.220;104.306;2023-05-29T07:23:46;96139.66;;;22.78;21.18
68141;BME280;54941;52.220;104.306;2023-05-29T07:26:13;96126.72;;;22.96;20.77
68141;BME280;54941;52.220;104.306;2023-05-29T07:28:41;96132.06;;;22.72;20.50
68141;BME280;54941;52.220;104.306;2023-05-29T07:31:07;96127.94;;;22.30;20.59
68141;BME280;54941;52.220;104.306;2023-05-29T07:33:33;96115.16;;;22.21;20.48
68141;BME280;54941;52.220;104.306;2023-05-29T07:36:00;96123.16;;;22.59;21.12
68141;BME280;54941;52.220;104.306;2023-05-29T07:38:26;96111.47;;;22.84;20.99
68141;BME280;54941;52.220;104.306;2023-05-29T07:40:52;96118.78;;;22.82;20.52
68141;BME280;54941;52.220;104.306;2023-05-29T07:43:19;96116.75;;;22.73;20.67
68141;BME280;54941;52.220;104.306;2023-05-29T07:45:46;96111.84;;;22.54;21.16
68141;BME280;54941;52.220;104.306;2023-05-29T07:48:13;96107.00;;;22.59;20.84
68141;BME280;54941;52.220;104.306;2023-05-29T07:50:39;96113.16;;;22.48;21.24
68141;BME280;54941;52.220;104.306;2023-05-29T07:53:06;96113.88;;;22.63;21.48
68141;BME280;54941;52.220;104.306;2023-05-29T07:55:33;96090.31;;;22.54;21.78
68141;BME280;54941;52.220;104.306;2023-05-29T07:58:00;96088.59;;;22.89;20.95
68141;BME280;54941;52.220;104.306;2023-05-29T08:00:26;96088.81;;;22.50;21.25
68141;BME280;54941;52.220;104.306;2023-05-29T08:02:54;96085.16;;;22.87;21.29
68141;BME280;54941;52.220;104.306;2023-05-29T08:05:20;96079.78;;;22.75;21.20
68141;BME280;54941;52.220;104.306;2023-05-29T08:07:46;96077.19;;;22.86;21.03
68141;BME280;54941;52.220;104.306;2023-05-29T08:10:13;96067.59;;;22.58;21.52
68141;BME280;54941;52.220;104.306;2023-05-29T08:12:39;96074.09;;;22.66;21.21
68141;BME280;54941;52.220;104.306;2023-05-29T08:15:08;96064.88;;;22.94;22.08
68141;BME280;54941;52.220;104.306;2023-05-29T08:17:35;96065.16;;;22.66;21.77
68141;BME280;54941;52.220;104.306;2023-05-29T08:20:03;96064.84;;;22.47;20.77
68141;BME280;54941;52.220;104.306;2023-05-29T08:22:29;96055.81;;;22.35;20.79
68141;BME280;54941;52.220;104.306;2023-05-29T08:24:56;96058.84;;;22.30;21.35
68141;BME280;54941;52.220;104.306;2023-05-29T08:27:22;96057.31;;;22.39;21.93
68141;BME280;54941;52.220;104.306;2023-05-29T08:29:48;96054.06;;;22.34;21.47
68141;BME280;54941;52.220;104.306;2023-05-29T08:32:15;96052.06;;;22.61;21.43
68141;BME280;54941;52.220;104.306;2023-05-29T08:34:41;96064.03;;;22.81;21.64
68141;BME280;54941;52.220;104.306;2023-05-29T08:37:09;96046.44;;;22.64;21.06
68141;BME280;54941;52.220;104.306;2023-05-29T08:39:35;96048.22;;;22.53;20.85
68141;BME280;54941;52.220;104.306;2023-05-29T08:42:04;96051.00;;;22.88;21.15
68141;BME280;54941;52.220;104.306;2023-05-29T08:44:33;96048.16;;;22.89;20.59
68141;BME280;54941;52.220;104.306;2023-05-29T08:47:02;96043.00;;;22.62;21.06
68141;BME280;54941;52.220;104.306;2023-05-29T08:49:29;96042.47;;;22.57;21.21
68141;BME280;54941;52.220;104.306;2023-05-29T08:52:09;96039.47;;;22.86;21.61
68141;BME280;54941;52.220;104.306;2023-05-29T08:54:37;96040.75;;;22.56;21.55
68141;BME280;54941;52.220;104.306;2023-05-29T08:57:04;96042.06;;;22.87;20.96
68141;BME280;54941;52.220;104.306;2023-05-29T08:59:31;96035.97;;;22.73;21.28
68141;BME280;54941;52.220;104.306;2023-05-29T09:01:58;96028.22;;;22.92;21.57
68141;BME280;54941;52.220;104.306;2023-05-29T09:04:24;96043.97;;;23.09;20.59
68141;BME280;54941;52.220;104.306;2023-05-29T09:06:51;96040.78;;;23.04;20.74
68141;BME280;54941;52.220;104.306;2023-05-29T09:09:17;96035.59;;;22.77;21.32
68141;BME280;54941;52.220;104.306;2023-05-29T09:11:45;96028.16;;;23.05;20.64
68141;BME280;54941;52.220;104.306;2023-05-29T09:14:31;96022.56;;;22.84;20.89
68141;BME280;54941;52.220;104.306;2023-05-29T09:16:58;96031.50;;;22.84;21.13
68141;BME280;54941;52.220;104.306;2023-05-29T09:19:25;96027.53;;;22.77;21.65
68141;BME280;54941;52.220;104.306;2023-05-29T09:21:51;96019.88;;;22.84;21.19
68141;BME280;54941;52.220;104.306;2023-05-29T09:24:19;96021.72;;;22.83;21.16
68141;BME280;54941;52.220;104.306;2023-05-29T09:26:50;96015.41;;;22.95;21.86
68141;BME280;54941;52.220;104.306;2023-05-29T09:29:17;96014.78;;;23.03;21.48
68141;BME280;54941;52.220;104.306;2023-05-29T09:31:46;96013.50;;;22.85;21.38
68141;BME280;54941;52.220;104.306;2023-05-29T09:34:12;96010.59;;;22.88;21.56
68141;BME280;54941;52.220;104.306;2023-05-29T09:36:39;96015.63;;;22.92;21.82
68141;BME280;54941;52.220;104.306;2023-05-29T09:39:05;96006.50;;;22.82;21.78
68141;BME280;54941;52.220;104.306;2023-05-29T09:41:31;96005.06;;;22.89;20.53
68141;BME280;54941;52.220;104.306;2023-05-29T09:44:01;96000.94;;;22.73;20.63
68141;BME280;54941;52.220;104.306;2023-05-29T09:46:34;95996.66;;;22.70;21.08
68141;BME280;54941;52.220;104.306;2023-05-29T09:49:01;95987.72;;;22.69;21.44
68141;BME280;54941;52.220;104.306;2023-05-29T09:51:28;95994.22;;;22.78;21.55
68141;BME280;54941;52.220;104.306;2023-05-29T09:53:54;95980.94;;;22.64;21.38
68141;BME280;54941;52.220;104.306;2023-05-29T09:56:23;95973.22;;;22.59;21.12
68141;BME280;54941;52.220;104.306;2023-05-29T09:58:50;95982.06;;;22.61;21.86
68141;BME280;54941;52.220;104.306;2023-05-29T10:01:21;95992.41;;;22.55;21.81
68141;BME280;54941;52.220;104.306;2023-05-29T10:03:48;95971.41;;;22.60;21.77
68141;BME280;54941;52.220;104.306;2023-05-29T10:06:18;95982.44;;;22.68;22.61
68141;BME280;54941;52.220;104.306;2023-05-29T10:08:46;95975.44;;;22.65;21.60
68141;BME280;54941;52.220;104.306;2023-05-29T10:11:14;95976.84;;;22.71;22.52
68141;BME280;54941;52.220;104.306;2023-05-29T10:13:42;95964.19;;;22.60;22.15
68141;BME280;54941;52.220;104.306;2023-05-29T10:16:10;95971.22;;;22.50;21.83
68141;BME280;54941;52.220;104.306;2023-05-29T10:18:42;95966.03;;;22.36;22.27
68141;BME280;54941;52.220;104.306;2023-05-29T10:21:12;95965.00;;;22.26;22.61
68141;BME280;54941;52.220;104.306;2023-05-29T10:23:42;95960.72;;;22.10;22.45
68141;BME280;54941;52.220;104.306;2023-05-29T10:26:12;95963.84;;;22.17;22.46
68141;BME280;54941;52.220;104.306;2023-05-29T10:28:46;95958.34;;;22.19;22.32
68141;BME280;54941;52.220;104.306;2023-05-29T10:31:17;95959.66;;;22.13;24.06
68141;BME280;54941;52.220;104.306;2023-05-29T10:33:58;95954.72;;;21.94;23.09
68141;BME280;54941;52.220;104.306;2023-05-29T10:36:30;95955.41;;;21.85;23.67
68141;BME280;54941;52.220;104.306;2023-05-29T10:38:59;95963.06;;;21.78;23.97
68141;BME280;54941;52.220;104.306;2023-05-29T10:41:31;95952.34;;;21.66;23.50
68141;BME280;54941;52.220;104.306;2023-05-29T10:43:58;95957.50;;;21.69;23.75
68141;BME280;54941;52.220;104.306;2023-05-29T10:49:26;95954.94;;;21.54;23.38
68141;BME280;54941;52.220;104.306;2023-05-29T10:51:52;95954.00;;;21.43;23.22
68141;BME280;54941;52.220;104.306;2023-05-29T10:54:21;95967.28;;;21.57;23.76
68141;BME280;54941;52.220;104.306;2023-05-29T10:56:52;95967.31;;;21.44;24.10
68141;BME280;54941;52.220;104.306;2023-05-29T10:59:20;95965.38;;;21.34;23.49
68141;BME280;54941;52.220;104.306;2023-05-29T11:01:47;95966.53;;;21.17;23.62
68141;BME280;54941;52.220;104.306;2023-05-29T11:04:28;95970.16;;;21.03;23.70
68141;BME280;54941;52.220;104.306;2023-05-29T11:06:55;95970.28;;;20.89;23.68
68141;BME280;54941;52.220;104.306;2023-05-29T11:09:28;95965.53;;;20.80;23.69
68141;BME280;54941;52.220;104.306;2023-05-29T11:12:15;95959.72;;;20.73;24.39
68141;BME280;54941;52.220;104.306;2023-05-29T11:14:45;95968.19;;;20.67;24.11
68141;BME280;54941;52.220;104.306;2023-05-29T11:17:34;95971.06;;;20.51;24.26
68141;BME280;54941;52.220;104.306;2023-05-29T11:20:17;95976.94;;;20.44;24.44
68141;BME280;54941;52.220;104.306;2023-05-29T11:23:00;95966.66;;;20.36;24.16
68141;BME280;54941;52.220;104.306;2023-05-29T11:25:27;95975.34;;;20.27;24.62
68141;BME280;54941;52.220;104.306;2023-05-29T11:27:53;95973.53;;;20.27;24.79
68141;BME280;54941;52.220;104.306;2023-05-29T11:30:19;95974.13;;;20.18;24.71
68141;BME280;54941;52.220;104.306;2023-05-29T11:32:47;95966.69;;;20.09;25.65
68141;BME280;54941;52.220;104.306;2023-05-29T11:35:15;95960.84;;;20.02;25.01
68141;BME280;54941;52.220;104.306;2023-05-29T11:37:44;95967.47;;;19.97;25.06
68141;BME280;54941;52.220;104.306;2023-05-29T11:40:12;95967.47;;;19.97;25.22
68141;BME280;54941;52.220;104.306;2023-05-29T11:42:41;95958.88;;;19.92;25.26
68141;BME280;54941;52.220;104.306;2023-05-29T11:45:15;95966.94;;;19.92;25.28
68141;BME280;54941;52.220;104.306;2023-05-29T11:47:52;95961.31;;;19.82;26.02
68141;BME280;54941;52.220;104.306;2023-05-29T11:50:21;95970.03;;;19.71;26.13
68141;BME280;54941;52.220;104.306;2023-05-29T11:52:47;95970.81;;;19.59;26.71
68141;BME280;54941;52.220;104.306;2023-05-29T11:55:14;95968.03;;;19.46;26.71
68141;BME280;54941;52.220;104.306;2023-05-29T11:57:40;95971.72;;;19.44;27.50
68141;BME280;54941;52.220;104.306;2023-05-29T12:00:07;95970.78;;;19.31;27.53
68141;BME280;54941;52.220;104.306;2023-05-29T12:02:36;95971.84;;;19.14;27.41
68141;BME280;54941;52.220;104.306;2023-05-29T12:05:03;95973.06;;;19.08;27.74
68141;BME280;54941;52.220;104.306;2023-05-29T12:07:32;95977.84;;;19.03;27.87
68141;BME280;54941;52.220;104.306;2023-05-29T12:10:09;95975.81;;;18.92;27.68
68141;BME280;54941;52.220;104.306;2023-05-29T12:12:35;95973.50;;;18.86;27.97
68141;BME280;54941;52.220;104.306;2023-05-29T12:15:02;95973.28;;;18.75;28.15
68141;BME280;54941;52.220;104.306;2023-05-29T12:17:30;95970.03;;;18.70;28.39
68141;BME280;54941;52.220;104.306;2023-05-29T12:19:56;95973.63;;;18.55;28.97
68141;BME280;54941;52.220;104.306;2023-05-29T12:22:33;95970.34;;;18.50;29.05
68141;BME280;54941;52.220;104.306;2023-05-29T12:25:05;95984.53;;;18.36;29.25
68141;BME280;54941;52.220;104.306;2023-05-29T12:27:32;95978.06;;;18.24;29.40
68141;BME280;54941;52.220;104.306;2023-05-29T12:30:02;95984.47;;;18.22;30.57
68141;BME280;54941;52.220;104.306;2023-05-29T12:32:36;95984.13;;;18.12;30.21
68141;BME280;54941;52.220;104.306;2023-05-29T12:35:13;95978.97;;;17.77;31.03
68141;BME280;54941;52.220;104.306;2023-05-29T12:37:45;95984.31;;;17.77;30.27
68141;BME280;54941;52.220;104.306;2023-05-29T12:40:14;95982.50;;;17.78;30.20
68141;BME280;54941;52.220;104.306;2023-05-29T12:42:41;95978.00;;;17.63;30.34
68141;BME280;54941;52.220;104.306;2023-05-29T12:45:07;95981.69;;;17.11;34.25
68141;BME280;54941;52.220;104.306;2023-05-29T12:47:34;95978.72;;;16.66;35.38
68141;BME280;54941;52.220;104.306;2023-05-29T12:50:06;95986.19;;;16.42;35.77